sensor_id;sensor_type;location;lat;lon;timestamp;P1;durP1;ratioP1;P2;durP2;ratioP2
2940;SDS011;1480;51.456;6.670;2023-02-01T00:02:02;20.87;;;5.77;;
2940;SDS011;1480;51.456;6.670;2023-02-01T00:04:29;14.73;;;6.07;;
2940;SDS011;1480;51.456;6.670;2023-02-01T00:06:56;18.77;;;5.67;;
2940;SDS011;1480;51.456;6.670;2023-02-01T00:09:23;16.67;;;7.00;;
2940;SDS011;1480;51.456;6.670;2023-02-01T00:11:51;16.20;;;5.70;;
2940;SDS011;1480;51.456;6.670;2023-02-01T00:14:18;19.43;;;6.47;;
2940;SDS011;1480;51.456;6.670;2023-02-01T00:16:45;18.43;;;6.70;;
2940;SDS011;1480;51.456;6.670;2023-02-01T00:19:13;16.60;;;6.07;;
2940;SDS011;1480;51.456;6.670;2023-02-01T00:21:41;12.33;;;5.37;;
2940;SDS011;1480;51.456;6.670;2023-02-01T00:24:09;12.00;;;5.03;;
2940;SDS011;1480;51.456;6.670;2023-02-01T00:26:37;13.50;;;4.57;;
2940;SDS011;1480;51.456;6.670;2023-02-01T00:29:09;10.17;;;5.17;;
2940;SDS011;1480;51.456;6.670;2023-02-01T00:31:39;16.67;;;5.43;;
2940;SDS011;1480;51.456;6.670;2023-02-01T00:34:06;16.17;;;6.13;;
2940;SDS011;1480;51.456;6.670;2023-02-01T00:36:33;18.87;;;6.77;;
2940;SDS011;1480;51.456;6.670;2023-02-01T00:39:00;11.40;;;5.10;;
2940;SDS011;1480;51.456;6.670;2023-02-01T00:41:30;13.23;;;5.70;;
2940;SDS011;1480;51.456;6.670;2023-02-01T00:43:57;23.50;;;6.43;;
2940;SDS011;1480;51.456;6.670;2023-02-01T00:46:25;12.03;;;5.70;;
2940;SDS011;1480;51.456;6.670;2023-02-01T00:48:52;19.83;;;5.70;;
2940;SDS011;1480;51.456;6.670;2023-02-01T00:51:20;18.27;;;5.77;;
2940;SDS011;1480;51.456;6.670;2023-02-01T00:53:49;10.23;;;6.23;;
2940;SDS011;1480;51.456;6.670;2023-02-01T00:56:17;26.20;;;8.73;;
2940;SDS011;1480;51.456;6.670;2023-02-01T00:58:44;24.70;;;8.00;;
2940;SDS011;1480;51.456;6.670;2023-02-01T01:01:11;18.37;;;7.70;;
2940;SDS011;1480;51.456;6.670;2023-02-01T01:03:43;15.30;;;7.50;;
2940;SDS011;1480;51.456;6.670;2023-02-01T01:06:11;17.97;;;8.23;;
2940;SDS011;1480;51.456;6.670;2023-02-01T01:08:40;22.23;;;8.70;;
2940;SDS011;1480;51.456;6.670;2023-02-01T01:11:09;20.20;;;8.40;;
2940;SDS011;1480;51.456;6.670;2023-02-01T01:13:38;20.65;;;8.15;;
2940;SDS011;1480;51.456;6.670;2023-02-01T01:16:06;15.27;;;7.00;;
2940;SDS011;1480;51.456;6.670;2023-02-01T01:18:34;17.47;;;8.23;;
2940;SDS011;1480;51.456;6.670;2023-02-01T01:21:05;13.13;;;7.67;;
2940;SDS011;1480;51.456;6.670;2023-02-01T01:23:33;18.83;;;8.17;;
2940;SDS011;1480;51.456;6.670;2023-02-01T01:26:00;19.90;;;7.30;;
2940;SDS011;1480;51.456;6.670;2023-02-01T01:28:30;17.13;;;7.10;;
2940;SDS011;1480;51.456;6.670;2023-02-01T01:30:57;19.67;;;7.70;;
2940;SDS011;1480;51.456;6.670;2023-02-01T01:33:24;14.37;;;6.93;;
2940;SDS011;1480;51.456;6.670;2023-02-01T01:35:51;20.33;;;7.77;;
2940;SDS011;1480;51.456;6.670;2023-02-01T01:38:19;12.23;;;6.33;;
2940;SDS011;1480;51.456;6.670;2023-02-01T01:40:47;18.20;;;6.47;;
2940;SDS011;1480;51.456;6.670;2023-02-01T01:43:16;18.13;;;6.50;;
2940;SDS011;1480;51.456;6.670;2023-02-01T01:45:47;11.80;;;6.50;;
2940;SDS011;1480;51.456;6.670;2023-02-01T01:48:16;18.77;;;6.20;;
2940;SDS011;1480;51.456;6.670;2023-02-01T01:50:47;24.50;;;8.20;;
2940;SDS011;1480;51.456;6.670;2023-02-01T01:53:18;13.60;;;5.33;;
2940;SDS011;1480;51.456;6.670;2023-02-01T01:55:51;12.30;;;5.47;;
2940;SDS011;1480;51.456;6.670;2023-02-01T01:58:21;17.00;;;5.20;;
2940;SDS011;1480;51.456;6.670;2023-02-01T02:00:52;14.30;;;6.30;;
2940;SDS011;1480;51.456;6.670;2023-02-01T02:03:20;11.47;;;5.20;;
2940;SDS011;1480;51.456;6.670;2023-02-01T02:05:52;18.20;;;5.20;;
2940;SDS011;1480;51.456;6.670;2023-02-01T02:08:22;12.53;;;5.80;;
2940;SDS011;1480;51.456;6.670;2023-02-01T02:10:51;18.53;;;5.20;;
2940;SDS011;1480;51.456;6.670;2023-02-01T02:13:28;23.30;;;5.23;;
2940;SDS011;1480;51.456;6.670;2023-02-01T02:16:04;16.13;;;5.67;;
2940;SDS011;1480;51.456;6.670;2023-02-01T02:18:41;17.70;;;5.07;;
2940;SDS011;1480;51.456;6.670;2023-02-01T02:21:17;19.77;;;4.93;;
2940;SDS011;1480;51.456;6.670;2023-02-01T02:27:04;13.80;;;4.50;;
2940;SDS011;1480;51.456;6.670;2023-02-01T02:29:53;20.87;;;4.17;;
2940;SDS011;1480;51.456;6.670;2023-02-01T02:32:48;9.60;;;3.87;;
2940;SDS011;1480;51.456;6.670;2023-02-01T02:35:31;15.57;;;4.60;;
2940;SDS011;1480;51.456;6.670;2023-02-01T02:38:05;18.10;;;4.80;;
2940;SDS011;1480;51.456;6.670;2023-02-01T02:40:42;10.00;;;3.90;;
2940;SDS011;1480;51.456;6.670;2023-02-01T02:43:17;13.50;;;4.40;;
2940;SDS011;1480;51.456;6.670;2023-02-01T02:46:06;11.37;;;4.40;;
2940;SDS011;1480;51.456;6.670;2023-02-01T02:48:59;8.73;;;2.83;;
2940;SDS011;1480;51.456;6.670;2023-02-01T02:51:34;11.80;;;3.63;;
2940;SDS011;1480;51.456;6.670;2023-02-01T02:54:25;17.00;;;4.20;;
2940;SDS011;1480;51.456;6.670;2023-02-01T02:57:19;16.77;;;5.83;;
2940;SDS011;1480;51.456;6.670;2023-02-01T03:00:08;12.13;;;3.50;;
2940;SDS011;1480;51.456;6.670;2023-02-01T03:02:55;14.10;;;4.00;;
2940;SDS011;1480;51.456;6.670;2023-02-01T03:05:40;16.13;;;4.30;;
2940;SDS011;1480;51.456;6.670;2023-02-01T03:08:13;8.73;;;3.93;;
2940;SDS011;1480;51.456;6.670;2023-02-01T03:10:47;19.63;;;4.30;;
2940;SDS011;1480;51.456;6.670;2023-02-01T03:13:20;8.63;;;3.60;;
2940;SDS011;1480;51.456;6.670;2023-02-01T03:15:53;14.77;;;4.93;;
2940;SDS011;1480;51.456;6.670;2023-02-01T03:18:30;9.13;;;3.80;;
2940;SDS011;1480;51.456;6.670;2023-02-01T03:21:02;18.13;;;4.50;;
2940;SDS011;1480;51.456;6.670;2023-02-01T03:23:35;16.53;;;3.67;;
2940;SDS011;1480;51.456;6.670;2023-02-01T03:26:04;11.53;;;4.13;;
2940;SDS011;1480;51.456;6.670;2023-02-01T03:28:34;23.27;;;5.10;;
2940;SDS011;1480;51.456;6.670;2023-02-01T03:31:04;12.80;;;4.50;;
2940;SDS011;1480;51.456;6.670;2023-02-01T03:33:31;13.77;;;4.20;;
2940;SDS011;1480;51.456;6.670;2023-02-01T03:36:12;16.03;;;4.30;;
2940;SDS011;1480;51.456;6.670;2023-02-01T03:38:47;12.70;;;4.97;;
2940;SDS011;1480;51.456;6.670;2023-02-01T03:41:21;18.33;;;5.57;;
2940;SDS011;1480;51.456;6.670;2023-02-01T03:43:53;26.53;;;5.57;;
2940;SDS011;1480;51.456;6.670;2023-02-01T03:46:30;13.57;;;4.70;;
2940;SDS011;1480;51.456;6.670;2023-02-01T03:49:03;12.30;;;4.43;;
2940;SDS011;1480;51.456;6.670;2023-02-01T03:51:34;14.10;;;4.87;;
2940;SDS011;1480;51.456;6.670;2023-02-01T03:54:05;14.27;;;4.47;;
2940;SDS011;1480;51.456;6.670;2023-02-01T03:56:35;10.77;;;3.27;;
2940;SDS011;1480;51.456;6.670;2023-02-01T03:59:05;7.70;;;3.60;;
2940;SDS011;1480;51.456;6.670;2023-02-01T04:01:34;18.87;;;5.70;;
2940;SDS011;1480;51.456;6.670;2023-02-01T04:04:01;16.47;;;4.80;;
2940;SDS011;1480;51.456;6.670;2023-02-01T04:06:28;16.27;;;4.43;;
2940;SDS011;1480;51.456;6.670;2023-02-01T04:08:59;17.00;;;4.97;;
2940;SDS011;1480;51.456;6.670;2023-02-01T04:11:29;11.37;;;4.47;;
2940;SDS011;1480;51.456;6.670;2023-02-01T04:13:55;17.83;;;4.77;;
2940;SDS011;1480;51.456;6.670;2023-02-01T04:16:22;15.00;;;4.57;;
2940;SDS011;1480;51.456;6.670;2023-02-01T04:18:49;18.77;;;4.67;;
2940;SDS011;1480;51.456;6.670;2023-02-01T04:21:16;12.80;;;5.10;;
2940;SDS011;1480;51.456;6.670;2023-02-01T04:23:43;16.30;;;5.07;;
2940;SDS011;1480;51.456;6.670;2023-02-01T04:26:10;28.60;;;6.70;;
2940;SDS011;1480;51.456;6.670;2023-02-01T04:28:38;11.43;;;4.50;;
2940;SDS011;1480;51.456;6.670;2023-02-01T04:31:05;17.53;;;6.03;;
2940;SDS011;1480;51.456;6.670;2023-02-01T04:33:32;13.90;;;4.60;;
2940;SDS011;1480;51.456;6.670;2023-02-01T04:35:59;18.13;;;5.80;;
2940;SDS011;1480;51.456;6.670;2023-02-01T04:38:26;24.63;;;5.03;;
2940;SDS011;1480;51.456;6.670;2023-02-01T04:40:54;13.23;;;4.47;;
2940;SDS011;1480;51.456;6.670;2023-02-01T04:43:21;18.60;;;5.27;;
2940;SDS011;1480;51.456;6.670;2023-02-01T04:45:49;30.03;;;5.10;;
2940;SDS011;1480;51.456;6.670;2023-02-01T04:48:17;13.87;;;4.10;;
2940;SDS011;1480;51.456;6.670;2023-02-01T04:50:45;19.17;;;5.13;;
2940;SDS011;1480;51.456;6.670;2023-02-01T04:53:13;21.13;;;5.33;;
2940;SDS011;1480;51.456;6.670;2023-02-01T04:55:40;16.13;;;5.70;;
2940;SDS011;1480;51.456;6.670;2023-02-01T04:58:07;13.50;;;4.83;;
2940;SDS011;1480;51.456;6.670;2023-02-01T05:00:34;27.27;;;5.20;;
2940;SDS011;1480;51.456;6.670;2023-02-01T05:03:02;28.93;;;5.43;;
2940;SDS011;1480;51.456;6.670;2023-02-01T05:05:29;13.67;;;4.37;;
2940;SDS011;1480;51.456;6.670;2023-02-01T05:07:56;19.57;;;5.70;;
2940;SDS011;1480;51.456;6.670;2023-02-01T05:10:23;23.97;;;4.27;;
2940;SDS011;1480;51.456;6.670;2023-02-01T05:12:50;14.27;;;4.40;;
2940;SDS011;1480;51.456;6.670;2023-02-01T05:15:34;23.03;;;5.80;;
2940;SDS011;1480;51.456;6.670;2023-02-01T05:18:03;18.57;;;4.43;;
2940;SDS011;1480;51.456;6.670;2023-02-01T05:20:30;19.23;;;3.67;;
2940;SDS011;1480;51.456;6.670;2023-02-01T05:22:57;18.00;;;4.33;;
2940;SDS011;1480;51.456;6.670;2023-02-01T05:25:24;17.97;;;4.13;;
2940;SDS011;1480;51.456;6.670;2023-02-01T05:27:51;11.27;;;4.00;;
2940;SDS011;1480;51.456;6.670;2023-02-01T05:30:19;20.50;;;5.33;;
2940;SDS011;1480;51.456;6.670;2023-02-01T05:32:48;19.73;;;4.23;;
2940;SDS011;1480;51.456;6.670;2023-02-01T05:35:17;20.63;;;4.80;;
2940;SDS011;1480;51.456;6.670;2023-02-01T05:37:44;12.23;;;4.60;;
2940;SDS011;1480;51.456;6.670;2023-02-01T05:40:11;21.27;;;5.17;;
2940;SDS011;1480;51.456;6.670;2023-02-01T05:42:38;18.93;;;6.37;;
2940;SDS011;1480;51.456;6.670;2023-02-01T05:45:06;24.23;;;5.83;;
2940;SDS011;1480;51.456;6.670;2023-02-01T05:47:33;21.33;;;5.10;;
2940;SDS011;1480;51.456;6.670;2023-02-01T05:50:00;13.73;;;5.33;;
2940;SDS011;1480;51.456;6.670;2023-02-01T05:52:29;16.07;;;5.50;;
2940;SDS011;1480;51.456;6.670;2023-02-01T05:54:56;16.27;;;4.63;;
2940;SDS011;1480;51.456;6.670;2023-02-01T05:57:23;11.00;;;4.80;;
2940;SDS011;1480;51.456;6.670;2023-02-01T05:59:50;13.50;;;4.70;;
2940;SDS011;1480;51.456;6.670;2023-02-01T06:02:16;15.23;;;5.90;;
2940;SDS011;1480;51.456;6.670;2023-02-01T06:04:43;19.73;;;5.77;;
2940;SDS011;1480;51.456;6.670;2023-02-01T06:07:10;15.17;;;4.80;;
2940;SDS011;1480;51.456;6.670;2023-02-01T06:09:39;9.77;;;4.23;;
2940;SDS011;1480;51.456;6.670;2023-02-01T06:12:06;15.70;;;4.87;;
2940;SDS011;1480;51.456;6.670;2023-02-01T06:14:33;17.07;;;4.40;;
2940;SDS011;1480;51.456;6.670;2023-02-01T06:17:00;15.30;;;4.87;;
2940;SDS011;1480;51.456;6.670;2023-02-01T06:19:28;16.63;;;4.03;;
2940;SDS011;1480;51.456;6.670;2023-02-01T06:21:55;16.50;;;4.97;;
2940;SDS011;1480;51.456;6.670;2023-02-01T06:24:22;23.87;;;5.07;;
2940;SDS011;1480;51.456;6.670;2023-02-01T06:26:50;16.17;;;3.97;;
2940;SDS011;1480;51.456;6.670;2023-02-01T06:29:17;17.60;;;4.00;;
2940;SDS011;1480;51.456;6.670;2023-02-01T06:31:44;24.30;;;4.80;;
2940;SDS011;1480;51.456;6.670;2023-02-01T06:34:11;22.70;;;4.70;;
2940;SDS011;1480;51.456;6.670;2023-02-01T06:36:38;20.33;;;4.60;;
2940;SDS011;1480;51.456;6.670;2023-02-01T06:39:05;9.03;;;4.30;;
2940;SDS011;1480;51.456;6.670;2023-02-01T06:41:32;12.50;;;4.70;;
2940;SDS011;1480;51.456;6.670;2023-02-01T06:44:01;19.87;;;4.30;;
2940;SDS011;1480;51.456;6.670;2023-02-01T06:46:28;27.10;;;4.77;;
2940;SDS011;1480;51.456;6.670;2023-02-01T06:48:55;22.03;;;5.37;;
2940;SDS011;1480;51.456;6.670;2023-02-01T06:51:22;20.57;;;5.10;;
2940;SDS011;1480;51.456;6.670;2023-02-01T06:53:50;21.87;;;6.30;;
2940;SDS011;1480;51.456;6.670;2023-02-01T06:56:17;15.93;;;4.00;;
2940;SDS011;1480;51.456;6.670;2023-02-01T06:58:45;20.20;;;4.97;;
2940;SDS011;1480;51.456;6.670;2023-02-01T07:01:14;18.60;;;4.67;;
2940;SDS011;1480;51.456;6.670;2023-02-01T07:03:42;14.53;;;4.90;;
2940;SDS011;1480;51.456;6.670;2023-02-01T07:06:13;20.40;;;5.67;;
2940;SDS011;1480;51.456;6.670;2023-02-01T07:08:39;14.40;;;4.00;;
2940;SDS011;1480;51.456;6.670;2023-02-01T07:11:07;23.00;;;5.33;;
2940;SDS011;1480;51.456;6.670;2023-02-01T07:13:37;18.53;;;4.97;;
2940;SDS011;1480;51.456;6.670;2023-02-01T07:16:05;18.17;;;4.63;;
2940;SDS011;1480;51.456;6.670;2023-02-01T07:18:36;17.20;;;5.30;;
2940;SDS011;1480;51.456;6.670;2023-02-01T07:21:03;23.97;;;5.20;;
2940;SDS011;1480;51.456;6.670;2023-02-01T07:23:30;20.47;;;4.30;;
2940;SDS011;1480;51.456;6.670;2023-02-01T07:25:58;12.60;;;5.50;;
2940;SDS011;1480;51.456;6.670;2023-02-01T07:28:27;11.67;;;4.33;;
2940;SDS011;1480;51.456;6.670;2023-02-01T07:30:55;27.17;;;6.20;;
2940;SDS011;1480;51.456;6.670;2023-02-01T07:33:27;16.67;;;4.70;;
2940;SDS011;1480;51.456;6.670;2023-02-01T07:35:55;16.83;;;4.97;;
2940;SDS011;1480;51.456;6.670;2023-02-01T07:38:22;15.13;;;5.00;;
2940;SDS011;1480;51.456;6.670;2023-02-01T07:40:49;25.07;;;7.07;;
2940;SDS011;1480;51.456;6.670;2023-02-01T07:43:16;20.33;;;4.37;;
2940;SDS011;1480;51.456;6.670;2023-02-01T07:45:49;22.27;;;5.17;;
2940;SDS011;1480;51.456;6.670;2023-02-01T07:48:17;12.50;;;4.33;;
2940;SDS011;1480;51.456;6.670;2023-02-01T07:50:44;15.43;;;4.77;;
2940;SDS011;1480;51.456;6.670;2023-02-01T07:53:12;22.33;;;5.30;;
2940;SDS011;1480;51.456;6.670;2023-02-01T07:55:39;19.50;;;6.30;;
2940;SDS011;1480;51.456;6.670;2023-02-01T07:58:07;27.10;;;6.30;;
2940;SDS011;1480;51.456;6.670;2023-02-01T08:00:34;12.63;;;4.93;;
2940;SDS011;1480;51.456;6.670;2023-02-01T08:03:18;16.40;;;5.53;;
2940;SDS011;1480;51.456;6.670;2023-02-01T08:05:45;19.93;;;6.57;;
2940;SDS011;1480;51.456;6.670;2023-02-01T08:08:13;25.80;;;5.20;;
2940;SDS011;1480;51.456;6.670;2023-02-01T08:10:40;22.80;;;4.70;;
2940;SDS011;1480;51.456;6.670;2023-02-01T08:13:07;13.63;;;4.63;;
2940;SDS011;1480;51.456;6.670;2023-02-01T08:15:35;21.87;;;5.27;;
2940;SDS011;1480;51.456;6.670;2023-02-01T08:18:02;21.20;;;5.60;;
2940;SDS011;1480;51.456;6.670;2023-02-01T08:20:29;17.80;;;4.90;;
2940;SDS011;1480;51.456;6.670;2023-02-01T08:22:56;21.03;;;4.50;;
2940;SDS011;1480;51.456;6.670;2023-02-01T08:25:25;23.23;;;4.67;;
2940;SDS011;1480;51.456;6.670;2023-02-01T08:27:52;19.60;;;4.90;;
2940;SDS011;1480;51.456;6.670;2023-02-01T08:30:20;16.07;;;5.53;;
2940;SDS011;1480;51.456;6.670;2023-02-01T08:32:47;15.87;;;5.23;;
2940;SDS011;1480;51.456;6.670;2023-02-01T08:35:14;19.73;;;5.07;;
2940;SDS011;1480;51.456;6.670;2023-02-01T08:37:41;16.30;;;5.93;;
2940;SDS011;1480;51.456;6.670;2023-02-01T08:40:08;21.87;;;5.50;;
2940;SDS011;1480;51.456;6.670;2023-02-01T08:42:37;21.70;;;5.50;;
2940;SDS011;1480;51.456;6.670;2023-02-01T08:45:17;16.50;;;4.80;;
2940;SDS011;1480;51.456;6.670;2023-02-01T08:47:44;20.67;;;5.60;;
2940;SDS011;1480;51.456;6.670;2023-02-01T08:50:13;18.03;;;4.93;;
2940;SDS011;1480;51.456;6.670;2023-02-01T08:52:42;22.57;;;5.20;;
2940;SDS011;1480;51.456;6.670;2023-02-01T08:55:09;27.13;;;5.83;;
2940;SDS011;1480;51.456;6.670;2023-02-01T08:57:38;10.90;;;4.77;;
2940;SDS011;1480;51.456;6.670;2023-02-01T09:00:06;21.73;;;5.87;;
2940;SDS011;1480;51.456;6.670;2023-02-01T09:02:35;19.47;;;4.47;;
2940;SDS011;1480;51.456;6.670;2023-02-01T09:05:02;20.93;;;6.30;;
2940;SDS011;1480;51.456;6.670;2023-02-01T09:07:29;15.83;;;4.37;;
2940;SDS011;1480;51.456;6.670;2023-02-01T09:09:56;18.10;;;4.70;;
2940;SDS011;1480;51.456;6.670;2023-02-01T09:12:26;14.50;;;6.30;;
2940;SDS011;1480;51.456;6.670;2023-02-01T09:14:54;20.57;;;4.70;;
2940;SDS011;1480;51.456;6.670;2023-02-01T09:17:21;14.63;;;4.33;;
2940;SDS011;1480;51.456;6.670;2023-02-01T09:19:49;13.63;;;5.53;;
2940;SDS011;1480;51.456;6.670;2023-02-01T09:22:16;18.30;;;5.30;;
2940;SDS011;1480;51.456;6.670;2023-02-01T09:24:43;20.30;;;5.40;;
2940;SDS011;1480;51.456;6.670;2023-02-01T09:27:10;22.27;;;6.77;;
2940;SDS011;1480;51.456;6.670;2023-02-01T09:29:37;18.47;;;4.83;;
2940;SDS011;1480;51.456;6.670;2023-02-01T09:32:05;21.37;;;4.77;;
2940;SDS011;1480;51.456;6.670;2023-02-01T09:34:32;19.10;;;5.27;;
2940;SDS011;1480;51.456;6.670;2023-02-01T09:37:00;11.23;;;4.50;;
2940;SDS011;1480;51.456;6.670;2023-02-01T09:39:27;16.63;;;4.83;;
2940;SDS011;1480;51.456;6.670;2023-02-01T09:41:58;17.80;;;5.23;;
2940;SDS011;1480;51.456;6.670;2023-02-01T09:44:40;21.43;;;6.33;;
2940;SDS011;1480;51.456;6.670;2023-02-01T09:47:21;19.30;;;5.00;;
2940;SDS011;1480;51.456;6.670;2023-02-01T09:49:51;14.27;;;5.27;;
2940;SDS011;1480;51.456;6.670;2023-02-01T09:52:25;21.93;;;5.97;;
2940;SDS011;1480;51.456;6.670;2023-02-01T09:54:58;13.60;;;5.10;;
2940;SDS011;1480;51.456;6.670;2023-02-01T09:57:33;22.07;;;4.93;;
2940;SDS011;1480;51.456;6.670;2023-02-01T10:00:12;19.27;;;4.43;;
2940;SDS011;1480;51.456;6.670;2023-02-01T10:02:45;18.87;;;5.10;;
2940;SDS011;1480;51.456;6.670;2023-02-01T10:05:12;28.60;;;5.90;;
2940;SDS011;1480;51.456;6.670;2023-02-01T10:07:42;17.00;;;5.37;;
2940;SDS011;1480;51.456;6.670;2023-02-01T10:10:20;18.33;;;4.83;;
2940;SDS011;1480;51.456;6.670;2023-02-01T10:13:02;26.63;;;6.60;;
2940;SDS011;1480;51.456;6.670;2023-02-01T10:15:52;17.67;;;4.47;;
2940;SDS011;1480;51.456;6.670;2023-02-01T10:21:19;16.50;;;6.73;;
2940;SDS011;1480;51.456;6.670;2023-02-01T10:26:45;13.67;;;4.97;;
2940;SDS011;1480;51.456;6.670;2023-02-01T10:29:18;19.17;;;5.40;;
2940;SDS011;1480;51.456;6.670;2023-02-01T10:31:46;16.50;;;4.63;;
2940;SDS011;1480;51.456;6.670;2023-02-01T10:34:18;20.33;;;6.33;;
2940;SDS011;1480;51.456;6.670;2023-02-01T10:36:55;22.23;;;4.87;;
2940;SDS011;1480;51.456;6.670;2023-02-01T10:39:26;11.43;;;4.77;;
2940;SDS011;1480;51.456;6.670;2023-02-01T10:41:53;15.23;;;5.40;;
2940;SDS011;1480;51.456;6.670;2023-02-01T10:44:22;21.33;;;5.57;;
2940;SDS011;1480;51.456;6.670;2023-02-01T10:46:52;14.87;;;4.23;;
2940;SDS011;1480;51.456;6.670;2023-02-01T10:49:21;14.57;;;4.70;;
2940;SDS011;1480;51.456;6.670;2023-02-01T10:51:53;14.67;;;6.33;;
2940;SDS011;1480;51.456;6.670;2023-02-01T10:54:32;18.50;;;4.20;;
2940;SDS011;1480;51.456;6.670;2023-02-01T10:57:00;12.20;;;5.07;;
2940;SDS011;1480;51.456;6.670;2023-02-01T10:59:28;21.50;;;4.97;;
2940;SDS011;1480;51.456;6.670;2023-02-01T11:01:58;17.40;;;5.03;;
2940;SDS011;1480;51.456;6.670;2023-02-01T11:04:30;23.50;;;6.37;;
2940;SDS011;1480;51.456;6.670;2023-02-01T11:07:05;13.00;;;4.70;;
2940;SDS011;1480;51.456;6.670;2023-02-01T11:09:34;16.60;;;4.90;;
2940;SDS011;1480;51.456;6.670;2023-02-01T11:12:09;15.90;;;4.33;;
2940;SDS011;1480;51.456;6.670;2023-02-01T11:14:50;16.70;;;5.23;;
2940;SDS011;1480;51.456;6.670;2023-02-01T11:17:26;19.07;;;6.00;;
2940;SDS011;1480;51.456;6.670;2023-02-01T11:20:00;15.60;;;4.93;;
2940;SDS011;1480;51.456;6.670;2023-02-01T11:22:28;9.60;;;4.03;;
2940;SDS011;1480;51.456;6.670;2023-02-01T11:24:56;21.47;;;5.70;;
2940;SDS011;1480;51.456;6.670;2023-02-01T11:27:24;10.90;;;5.13;;
2940;SDS011;1480;51.456;6.670;2023-02-01T11:29:52;17.07;;;5.13;;
2940;SDS011;1480;51.456;6.670;2023-02-01T11:32:25;16.17;;;4.37;;
2940;SDS011;1480;51.456;6.670;2023-02-01T11:34:54;16.93;;;4.10;;
2940;SDS011;1480;51.456;6.670;2023-02-01T11:37:26;14.63;;;4.10;;
2940;SDS011;1480;51.456;6.670;2023-02-01T11:40:00;11.43;;;3.83;;
2940;SDS011;1480;51.456;6.670;2023-02-01T11:42:29;11.63;;;4.50;;
2940;SDS011;1480;51.456;6.670;2023-02-01T11:47:44;12.60;;;5.07;;
2940;SDS011;1480;51.456;6.670;2023-02-01T11:50:13;17.63;;;4.87;;
2940;SDS011;1480;51.456;6.670;2023-02-01T11:52:48;15.30;;;5.17;;
2940;SDS011;1480;51.456;6.670;2023-02-01T11:58:31;12.93;;;4.03;;
2940;SDS011;1480;51.456;6.670;2023-02-01T12:01:13;12.87;;;4.50;;
2940;SDS011;1480;51.456;6.670;2023-02-01T12:04:14;19.97;;;5.73;;
2940;SDS011;1480;51.456;6.670;2023-02-01T12:07:04;16.40;;;4.30;;
2940;SDS011;1480;51.456;6.670;2023-02-01T12:09:43;19.23;;;4.63;;
2940;SDS011;1480;51.456;6.670;2023-02-01T12:12:23;23.30;;;4.40;;
2940;SDS011;1480;51.456;6.670;2023-02-01T12:14:59;17.07;;;4.60;;
2940;SDS011;1480;51.456;6.670;2023-02-01T12:17:57;14.50;;;4.07;;
2940;SDS011;1480;51.456;6.670;2023-02-01T12:20:44;16.60;;;4.27;;
2940;SDS011;1480;51.456;6.670;2023-02-01T12:23:31;12.60;;;4.33;;
2940;SDS011;1480;51.456;6.670;2023-02-01T12:26:11;14.53;;;3.70;;
2940;SDS011;1480;51.456;6.670;2023-02-01T12:29:02;15.10;;;3.57;;
2940;SDS011;1480;51.456;6.670;2023-02-01T12:31:46;18.30;;;6.00;;
2940;SDS011;1480;51.456;6.670;2023-02-01T12:37:23;11.50;;;3.30;;
2940;SDS011;1480;51.456;6.670;2023-02-01T12:40:02;14.40;;;4.10;;
2940;SDS011;1480;51.456;6.670;2023-02-01T12:42:43;14.03;;;3.30;;
2940;SDS011;1480;51.456;6.670;2023-02-01T12:45:15;11.43;;;3.50;;
2940;SDS011;1480;51.456;6.670;2023-02-01T12:47:51;13.27;;;3.93;;
2940;SDS011;1480;51.456;6.670;2023-02-01T12:50:22;12.50;;;4.10;;
2940;SDS011;1480;51.456;6.670;2023-02-01T12:52:53;12.60;;;3.80;;
2940;SDS011;1480;51.456;6.670;2023-02-01T12:55:23;8.57;;;3.40;;
2940;SDS011;1480;51.456;6.670;2023-02-01T12:57:56;9.57;;;2.90;;
2940;SDS011;1480;51.456;6.670;2023-02-01T13:00:38;13.63;;;4.13;;
2940;SDS011;1480;51.456;6.670;2023-02-01T13:03:11;13.60;;;3.80;;
2940;SDS011;1480;51.456;6.670;2023-02-01T13:05:47;14.23;;;3.30;;
2940;SDS011;1480;51.456;6.670;2023-02-01T13:08:17;15.27;;;3.60;;
2940;SDS011;1480;51.456;6.670;2023-02-01T13:10:51;14.97;;;3.23;;
2940;SDS011;1480;51.456;6.670;2023-02-01T13:13:26;16.77;;;4.03;;
2940;SDS011;1480;51.456;6.670;2023-02-01T13:15:57;13.80;;;4.40;;
2940;SDS011;1480;51.456;6.670;2023-02-01T13:18:32;22.30;;;2.77;;
2940;SDS011;1480;51.456;6.670;2023-02-01T13:21:03;8.93;;;2.63;;
2940;SDS011;1480;51.456;6.670;2023-02-01T13:23:35;9.07;;;3.47;;
2940;SDS011;1480;51.456;6.670;2023-02-01T13:26:03;9.77;;;3.00;;
2940;SDS011;1480;51.456;6.670;2023-02-01T13:28:36;13.20;;;3.37;;
2940;SDS011;1480;51.456;6.670;2023-02-01T13:34:26;17.67;;;4.37;;
2940;SDS011;1480;51.456;6.670;2023-02-01T13:40:31;11.77;;;3.53;;
2940;SDS011;1480;51.456;6.670;2023-02-01T13:43:05;12.60;;;3.90;;
2940;SDS011;1480;51.456;6.670;2023-02-01T13:45:48;12.97;;;3.03;;
2940;SDS011;1480;51.456;6.670;2023-02-01T13:48:24;21.77;;;5.10;;
2940;SDS011;1480;51.456;6.670;2023-02-01T13:50:54;14.00;;;3.77;;
2940;SDS011;1480;51.456;6.670;2023-02-01T13:53:26;20.23;;;4.77;;
2940;SDS011;1480;51.456;6.670;2023-02-01T13:55:56;14.70;;;3.20;;
2940;SDS011;1480;51.456;6.670;2023-02-01T13:58:30;15.43;;;3.10;;
2940;SDS011;1480;51.456;6.670;2023-02-01T14:04:02;15.00;;;3.03;;
2940;SDS011;1480;51.456;6.670;2023-02-01T14:09:19;24.77;;;4.97;;
2940;SDS011;1480;51.456;6.670;2023-02-01T14:12:38;14.20;;;3.90;;
2940;SDS011;1480;51.456;6.670;2023-02-01T14:15:17;16.93;;;3.43;;
2940;SDS011;1480;51.456;6.670;2023-02-01T14:17:50;13.43;;;3.20;;
2940;SDS011;1480;51.456;6.670;2023-02-01T14:23:21;8.20;;;2.40;;
2940;SDS011;1480;51.456;6.670;2023-02-01T14:26:00;20.10;;;4.00;;
2940;SDS011;1480;51.456;6.670;2023-02-01T14:28:37;12.57;;;4.03;;
2940;SDS011;1480;51.456;6.670;2023-02-01T14:31:16;12.57;;;2.90;;
2940;SDS011;1480;51.456;6.670;2023-02-01T14:33:56;10.30;;;3.20;;
2940;SDS011;1480;51.456;6.670;2023-02-01T14:36:26;16.03;;;3.67;;
2940;SDS011;1480;51.456;6.670;2023-02-01T14:39:17;11.57;;;3.43;;
2940;SDS011;1480;51.456;6.670;2023-02-01T14:41:46;10.80;;;3.00;;
2940;SDS011;1480;51.456;6.670;2023-02-01T14:44:21;10.27;;;3.70;;
2940;SDS011;1480;51.456;6.670;2023-02-01T14:47:10;10.03;;;3.17;;
2940;SDS011;1480;51.456;6.670;2023-02-01T14:49:55;13.40;;;3.17;;
2940;SDS011;1480;51.456;6.670;2023-02-01T14:52:29;8.90;;;3.50;;
2940;SDS011;1480;51.456;6.670;2023-02-01T14:55:01;19.43;;;3.90;;
2940;SDS011;1480;51.456;6.670;2023-02-01T14:57:33;20.27;;;3.50;;
2940;SDS011;1480;51.456;6.670;2023-02-01T15:00:06;9.27;;;3.17;;
2940;SDS011;1480;51.456;6.670;2023-02-01T15:02:41;10.87;;;3.70;;
2940;SDS011;1480;51.456;6.670;2023-02-01T15:05:22;19.03;;;3.67;;
2940;SDS011;1480;51.456;6.670;2023-02-01T15:07:51;12.93;;;3.70;;
2940;SDS011;1480;51.456;6.670;2023-02-01T15:10:19;8.10;;;2.70;;
2940;SDS011;1480;51.456;6.670;2023-02-01T15:12:48;16.67;;;3.43;;
2940;SDS011;1480;51.456;6.670;2023-02-01T15:15:17;12.73;;;3.80;;
2940;SDS011;1480;51.456;6.670;2023-02-01T15:17:49;11.20;;;3.20;;
2940;SDS011;1480;51.456;6.670;2023-02-01T15:20:17;10.93;;;3.00;;
2940;SDS011;1480;51.456;6.670;2023-02-01T15:22:54;16.60;;;4.40;;
2940;SDS011;1480;51.456;6.670;2023-02-01T15:25:24;13.87;;;4.77;;
2940;SDS011;1480;51.456;6.670;2023-02-01T15:27:52;17.43;;;5.10;;
2940;SDS011;1480;51.456;6.670;2023-02-01T15:30:21;11.73;;;3.50;;
2940;SDS011;1480;51.456;6.670;2023-02-01T15:32:51;15.73;;;4.90;;
2940;SDS011;1480;51.456;6.670;2023-02-01T15:35:36;10.63;;;3.60;;
2940;SDS011;1480;51.456;6.670;2023-02-01T15:41:01;15.10;;;3.90;;
2940;SDS011;1480;51.456;6.670;2023-02-01T15:43:30;10.47;;;3.70;;
2940;SDS011;1480;51.456;6.670;2023-02-01T15:46:00;11.90;;;3.53;;
2940;SDS011;1480;51.456;6.670;2023-02-01T15:48:29;12.83;;;3.20;;
2940;SDS011;1480;51.456;6.670;2023-02-01T15:51:01;10.53;;;4.13;;
2940;SDS011;1480;51.456;6.670;2023-02-01T15:53:29;22.87;;;4.20;;
2940;SDS011;1480;51.456;6.670;2023-02-01T15:56:00;10.30;;;4.70;;
2940;SDS011;1480;51.456;6.670;2023-02-01T15:58:29;14.63;;;3.50;;
2940;SDS011;1480;51.456;6.670;2023-02-01T16:00:59;14.17;;;4.73;;
2940;SDS011;1480;51.456;6.670;2023-02-01T16:03:34;12.47;;;3.43;;
2940;SDS011;1480;51.456;6.670;2023-02-01T16:06:03;15.70;;;4.17;;